Time;durP1;ratioP1;P1;durP2;ratioP2;P2;SDS_P1;SDS_P2;PMS_P1;PMS_P2;Temp;Humidity;BMP_temperature;BMP_pressure;BME280_temperature;BME280_humidity;BME280_pressure;Samples;Min_cycle;Max_cycle;Signal;HPM_P1;HPM_P2
2022/05/31 00:02:03;;;;;;;3.28;1.20;;;;;;;12.08;54.09;100162.56;5046829;28;20032;-70
2022/05/31 00:04:29;;;;;;;2.65;1.30;;;;;;;12.06;54.09;100165.41;5043938;28;20037;-71
2022/05/31 00:06:55;;;;;;;2.83;1.48;;;;;;;12.04;54.46;100158.63;5049000;28;20056;-71
2022/05/31 00:09:20;;;;;;;1.88;1.20;;;;;;;12.03;54.45;100160.44;5047797;28;20032;-70
2022/05/31 00:11:46;;;;;;;1.80;1.13;;;;;;;11.98;54.18;100154.00;5044269;28;20371;-70
2022/05/31 00:14:13;;;;;;;1.92;1.27;;;;;;;11.92;54.51;100155.50;5046757;28;20451;-70
2022/05/31 00:16:39;;;;;;;1.55;1.10;;;;;;;11.87;54.74;100157.84;5045986;28;20044;-70
2022/05/31 00:19:05;;;;;;;1.77;1.10;;;;;;;11.84;54.76;100151.00;5044697;28;20041;-70
2022/05/31 00:21:41;;;;;;;3.70;1.42;;;;;;;11.83;55.29;100154.66;5044194;28;20048;-70
2022/05/31 00:24:09;;;;;;;2.92;1.40;;;;;;;11.84;55.00;100163.44;5045876;28;20521;-70
2022/05/31 00:26:38;;;;;;;2.65;1.30;;;;;;;11.84;55.04;100152.84;5046705;28;20131;-70
2022/05/31 00:29:03;;;;;;;2.17;1.00;;;;;;;11.78;54.98;100153.53;5045852;28;20041;-70
2022/05/31 00:31:29;;;;;;;1.80;1.08;;;;;;;11.78;55.20;100150.88;5045989;28;20537;-70
2022/05/31 00:33:54;;;;;;;1.95;1.10;;;;;;;11.81;55.31;100155.84;5045303;28;20053;-70
2022/05/31 00:36:20;;;;;;;2.45;1.35;;;;;;;11.80;55.05;100156.84;5050048;28;20029;-70
2022/05/31 00:38:45;;;;;;;2.28;1.30;;;;;;;11.79;54.97;100156.00;5044691;28;20064;-70
2022/05/31 00:41:26;;;;;;;2.03;1.00;;;;;;;11.78;55.04;100157.00;5045073;28;20033;-70
2022/05/31 00:44:06;;;;;;;2.17;1.10;;;;;;;11.77;55.19;100157.16;5042294;28;20128;-70
2022/05/31 00:46:43;;;;;;;2.22;1.10;;;;;;;11.76;55.01;100166.13;5037801;28;20052;-70
2022/05/31 00:49:12;;;;;;;1.60;1.00;;;;;;;11.68;54.99;100165.13;5048075;28;20033;-70
2022/05/31 00:51:42;;;;;;;2.28;1.20;;;;;;;11.57;55.38;100160.16;5044945;28;20059;-70
2022/05/31 00:54:12;;;;;;;2.20;1.30;;;;;;;11.54;55.49;100157.88;5043226;28;20068;-70
2022/05/31 00:56:38;;;;;;;1.70;1.00;;;;;;;11.48;55.83;100164.63;5042292;28;20036;-70
2022/05/31 00:59:12;;;;;;;1.80;1.15;;;;;;;11.45;55.60;100169.44;5046057;28;20045;-70
2022/05/31 01:01:41;;;;;;;2.45;1.05;;;;;;;11.44;55.84;100165.13;5045875;28;20037;-70
2022/05/31 01:04:07;;;;;;;1.92;1.00;;;;;;;11.35;56.04;100159.03;5045185;28;20037;-70
2022/05/31 01:06:33;;;;;;;1.42;1.00;;;;;;;11.24;56.64;100168.13;5048431;28;20032;-71
2022/05/31 01:09:00;;;;;;;1.33;1.10;;;;;;;11.15;57.88;100168.28;5048322;28;20037;-70
2022/05/31 01:11:28;;;;;;;1.60;1.10;;;;;;;11.10;57.33;100165.31;5048417;28;20111;-70
2022/05/31 01:13:55;;;;;;;1.40;0.98;;;;;;;11.03;57.42;100168.59;5048738;28;20037;-70
2022/05/31 01:16:20;;;;;;;1.60;1.05;;;;;;;10.97;58.19;100171.09;5047396;28;20068;-70
2022/05/31 01:18:46;;;;;;;1.50;0.90;;;;;;;10.90;57.30;100168.25;5046958;28;20079;-70
2022/05/31 01:21:11;;;;;;;2.15;1.13;;;;;;;10.82;57.75;100174.38;5046679;28;20041;-70
2022/05/31 01:23:57;;;;;;;2.25;1.00;;;;;;;10.74;58.82;100176.97;5046702;28;20512;-70
2022/05/31 01:26:31;;;;;;;1.40;0.90;;;;;;;10.66;57.95;100187.53;5046898;28;20445;-70
2022/05/31 01:29:06;;;;;;;1.75;0.90;;;;;;;10.59;58.69;100182.06;5045325;28;20402;-70
2022/05/31 01:31:44;;;;;;;2.25;1.10;;;;;;;10.51;58.98;100176.75;5043312;28;20128;-70
2022/05/31 01:34:18;;;;;;;1.85;1.08;;;;;;;10.46;59.16;100178.19;5049225;28;20033;-70
2022/05/31 01:36:55;;;;;;;2.42;1.30;;;;;;;10.39;60.33;100181.50;5049661;28;20033;-70
2022/05/31 01:39:44;;;;;;;1.63;1.10;;;;;;;10.36;60.45;100183.63;5049322;28;20044;-70
2022/05/31 01:42:29;;;;;;;2.33;1.15;;;;;;;10.30;60.13;100179.81;5049326;28;20056;-70
2022/05/31 01:45:17;;;;;;;1.85;1.25;;;;;;;10.29;59.71;100186.06;5048953;28;20516;-70
2022/05/31 01:47:43;;;;;;;1.20;1.00;;;;;;;10.24;60.53;100180.41;5047974;28;20033;-70
2022/05/31 01:50:13;;;;;;;1.65;1.10;;;;;;;10.24;60.43;100182.22;5043985;28;20048;-70
2022/05/31 01:52:39;;;;;;;1.42;1.02;;;;;;;10.26;60.16;100183.72;5050054;28;20041;-71
2022/05/31 01:55:07;;;;;;;2.15;0.90;;;;;;;10.20;60.50;100182.53;5049940;28;20120;-70
2022/05/31 01:57:33;;;;;;;1.73;1.00;;;;;;;10.20;60.33;100185.19;5049679;28;20339;-70
2022/05/31 02:00:08;;;;;;;1.83;1.30;;;;;;;10.27;60.41;100193.28;5048460;28;20047;-70
2022/05/31 02:02:33;;;;;;;1.67;0.93;;;;;;;10.31;59.84;100186.72;5047155;28;20528;-70
2022/05/31 02:04:58;;;;;;;1.27;0.90;;;;;;;10.30;60.43;100185.09;5047934;28;20036;-70
2022/05/31 02:07:26;;;;;;;2.15;1.02;;;;;;;10.31;60.26;100184.09;5047223;28;20029;-70
2022/05/31 02:09:53;;;;;;;1.20;1.00;;;;;;;10.37;60.21;100183.47;5048469;28;20297;-70
2022/05/31 02:12:20;;;;;;;1.98;1.10;;;;;;;10.43;59.97;100183.81;5048299;28;20414;-70
2022/05/31 02:14:46;;;;;;;1.60;1.10;;;;;;;10.48;59.92;100182.34;5049449;28;20060;-70
2022/05/31 02:17:11;;;;;;;2.08;1.20;;;;;;;10.53;59.72;100181.88;5046987;28;20465;-70
2022/05/31 02:19:38;;;;;;;2.88;1.00;;;;;;;10.53;59.89;100174.75;5049065;28;20048;-70
2022/05/31 02:22:07;;;;;;;2.42;1.02;;;;;;;10.55;59.83;100178.06;5049640;28;20432;-70
2022/05/31 02:24:34;;;;;;;2.05;1.30;;;;;;;10.52;59.85;100182.88;5051887;28;20502;-70
2022/05/31 02:27:01;;;;;;;1.92;1.20;;;;;;;10.46;60.68;100180.84;5049217;28;20123;-70
2022/05/31 02:29:29;;;;;;;2.35;1.40;;;;;;;10.44;60.37;100175.75;5048137;28;20049;-70
2022/05/31 02:31:57;;;;;;;2.05;1.20;;;;;;;10.39;60.64;100176.22;5050181;28;20078;-70
2022/05/31 02:34:26;;;;;;;1.50;1.10;;;;;;;10.38;60.28;100176.38;5047906;28;20501;-70
2022/05/31 02:36:51;;;;;;;1.88;1.10;;;;;;;10.33;60.74;100166.25;5047976;28;20073;-70
2022/05/31 02:39:17;;;;;;;1.95;1.25;;;;;;;10.36;60.69;100157.19;5045894;28;20536;-70
2022/05/31 02:41:43;;;;;;;3.13;1.30;;;;;;;10.38;60.35;100158.69;5047324;28;20033;-70
2022/05/31 02:44:09;;;;;;;1.27;1.00;;;;;;;10.43;59.98;100157.38;5046549;28;20075;-71
2022/05/31 02:46:35;;;;;;;2.33;1.17;;;;;;;10.40;60.24;100158.53;5054752;28;20513;-70
2022/05/31 02:49:01;;;;;;;2.08;1.13;;;;;;;10.38;60.36;100156.03;5050869;28;20044;-70
2022/05/31 02:51:27;;;;;;;1.20;0.95;;;;;;;10.40;60.38;100153.25;5050289;28;20501;-70
2022/05/31 02:53:53;;;;;;;3.08;1.40;;;;;;;10.35;60.75;100139.69;5047750;28;20053;-70
2022/05/31 02:56:19;;;;;;;1.95;1.10;;;;;;;10.32;60.63;100146.13;5047015;28;20044;-70
2022/05/31 02:58:44;;;;;;;1.50;1.08;;;;;;;10.30;60.61;100134.88;5048992;28;21377;-71
2022/05/31 03:01:23;;;;;;;2.28;1.40;;;;;;;10.28;60.69;100133.34;5048301;28;20033;-70
2022/05/31 03:03:49;;;;;;;4.05;1.67;;;;;;;10.28;60.25;100139.50;5048283;28;20029;-70
2022/05/31 03:06:15;;;;;;;1.90;1.13;;;;;;;10.33;60.29;100131.91;5047237;28;20074;-70
2022/05/31 03:08:41;;;;;;;1.55;1.00;;;;;;;10.39;60.27;100128.63;5049055;28;20657;-70
2022/05/31 03:11:10;;;;;;;2.58;1.17;;;;;;;10.38;60.15;100128.78;5049553;28;20040;-70
2022/05/31 03:13:36;;;;;;;1.17;0.82;;;;;;;10.34;60.56;100122.16;5046726;28;20040;-71
2022/05/31 03:16:02;;;;;;;1.73;0.98;;;;;;;10.33;60.45;100128.44;5044673;28;20494;-70
2022/05/31 03:18:34;;;;;;;1.70;1.10;;;;;;;10.35;60.32;100126.47;5046947;28;20041;-70
2022/05/31 03:21:06;;;;;;;1.33;1.20;;;;;;;10.35;60.45;100123.84;5042206;28;20037;-71
2022/05/31 03:23:43;;;;;;;1.98;1.30;;;;;;;10.32;60.53;100130.25;5045762;28;20033;-71
2022/05/31 03:26:12;;;;;;;2.97;1.30;;;;;;;10.31;60.51;100118.03;5047985;28;20124;-70
2022/05/31 03:28:38;;;;;;;2.80;1.30;;;;;;;10.30;60.46;100116.38;5047334;28;20524;-70
2022/05/31 03:31:03;;;;;;;2.38;1.23;;;;;;;10.26;60.46;100114.19;5048563;28;20045;-70
2022/05/31 03:33:29;;;;;;;1.90;1.10;;;;;;;10.21;60.41;100125.22;5048065;28;20033;-70
2022/05/31 03:35:55;;;;;;;2.53;1.20;;;;;;;10.14;61.57;100118.94;5048078;28;20025;-69
2022/05/31 03:38:20;;;;;;;2.10;1.40;;;;;;;10.08;61.55;100119.53;5047682;28;20057;-70
2022/05/31 03:40:58;;;;;;;1.90;1.10;;;;;;;10.02;61.60;100113.09;5054331;28;20040;-70
2022/05/31 03:43:32;;;;;;;2.35;1.20;;;;;;;9.98;61.69;100112.56;5045770;28;20037;-70
2022/05/31 03:45:58;;;;;;;1.90;1.20;;;;;;;9.96;61.40;100108.44;5041346;28;20029;-70
2022/05/31 03:48:24;;;;;;;1.83;1.10;;;;;;;9.97;61.87;100112.75;5046464;28;20029;-70
2022/05/31 03:51:04;;;;;;;2.35;1.30;;;;;;;9.99;62.16;100106.31;5047517;28;20033;-70
2022/05/31 03:53:30;;;;;;;1.70;1.20;;;;;;;10.08;61.58;100104.56;5046838;28;20073;-71
2022/05/31 03:55:55;;;;;;;2.13;1.20;;;;;;;10.18;61.28;100112.34;5047527;28;20065;-70
2022/05/31 03:58:22;;;;;;;1.73;1.20;;;;;;;10.21;61.57;100104.09;5044840;28;20029;-70
2022/05/31 04:00:47;;;;;;;2.92;1.10;;;;;;;10.25;61.26;100109.88;5048553;28;20028;-70
2022/05/31 04:03:13;;;;;;;1.92;1.17;;;;;;;10.27;61.36;100106.06;5047727;28;20036;-70
2022/05/31 04:05:39;;;;;;;2.25;1.40;;;;;;;10.38;60.80;100107.66;5046043;28;20061;-70
2022/05/31 04:08:08;;;;;;;2.28;1.30;;;;;;;10.42;61.21;100101.06;5047335;28;20088;-71
2022/05/31 04:10:35;;;;;;;1.77;1.10;;;;;;;10.50;60.76;100111.63;5047092;28;20211;-70
2022/05/31 04:13:00;;;;;;;2.35;1.20;;;;;;;10.57;60.71;100107.34;5047934;28;20040;-70
2022/05/31 04:15:27;;;;;;;1.80;1.13;;;;;;;10.61;61.34;100107.88;5047219;28;20036;-71
2022/05/31 04:17:52;;;;;;;1.85;1.30;;;;;;;10.61;61.86;100111.34;5047334;28;20040;-70
2022/05/31 04:20:18;;;;;;;1.52;1.10;;;;;;;10.61;61.44;100108.69;5045961;28;20052;-71
2022/05/31 04:22:43;;;;;;;1.58;1.10;;;;;;;10.62;61.18;100107.69;5049165;28;20033;-71
2022/05/31 04:25:09;;;;;;;1.70;1.10;;;;;;;10.61;61.20;100103.41;5045791;28;20494;-71
2022/05/31 04:27:34;;;;;;;2.20;1.10;;;;;;;10.60;60.89;100099.09;5045987;28;20025;-70
2022/05/31 04:29:59;;;;;;;1.88;1.20;;;;;;;10.56;61.28;100099.59;5046995;28;20360;-71
2022/05/31 04:32:25;;;;;;;2.55;1.30;;;;;;;10.54;61.00;100093.66;5045182;28;20037;-71
2022/05/31 04:34:52;;;;;;;3.20;1.40;;;;;;;10.52;60.97;100090.34;5049652;28;20505;-70
2022/05/31 04:37:18;;;;;;;1.85;1.50;;;;;;;10.46;61.50;100098.91;5046549;28;20511;-70
2022/05/31 04:39:43;;;;;;;2.53;1.75;;;;;;;10.36;61.74;100102.50;5045093;28;20033;-70
2022/05/31 04:42:09;;;;;;;3.15;2.00;;;;;;;10.20;62.43;100099.78;5046999;28;20435;-70
2022/05/31 04:44:34;;;;;;;4.28;2.10;;;;;;;10.10;62.47;100107.00;5045828;28;20390;-70
2022/05/31 04:46:59;;;;;;;2.78;1.73;;;;;;;10.09;62.22;100108.00;5046695;28;20060;-70
2022/05/31 04:49:25;;;;;;;2.45;1.70;;;;;;;10.09;62.46;100108.84;5045330;28;20048;-71
2022/05/31 04:51:50;;;;;;;3.08;1.88;;;;;;;10.07;62.61;100116.09;5046628;28;20128;-71
2022/05/31 04:54:19;;;;;;;3.53;2.25;;;;;;;10.12;63.16;100118.25;5046621;28;20117;-71
2022/05/31 04:56:44;;;;;;;3.53;1.80;;;;;;;10.26;62.51;100112.38;5045930;28;20036;-71
2022/05/31 04:59:10;;;;;;;3.58;1.90;;;;;;;10.37;62.71;100109.47;5046561;28;20045;-71
2022/05/31 05:01:37;;;;;;;3.10;1.92;;;;;;;10.40;62.82;100108.31;5045043;28;20043;-70
2022/05/31 05:04:03;;;;;;;2.25;1.70;;;;;;;10.50;62.56;100113.47;5046389;28;20451;-70
2022/05/31 05:06:28;;;;;;;3.58;1.95;;;;;;;10.56;62.58;100102.25;5047027;28;20056;-70
2022/05/31 05:08:54;;;;;;;3.10;1.90;;;;;;;10.59;62.55;100101.91;5051126;28;20124;-70
2022/05/31 05:11:21;;;;;;;3.25;1.90;;;;;;;10.71;62.53;100100.63;5051897;28;20041;-71
2022/05/31 05:13:46;;;;;;;3.20;2.17;;;;;;;10.76;62.90;100105.41;5050961;28;20361;-71
2022/05/31 05:16:14;;;;;;;3.17;1.90;;;;;;;10.85;62.80;100107.09;5049576;28;20479;-71
2022/05/31 05:18:39;;;;;;;3.05;1.75;;;;;;;10.94;62.61;100106.09;5050304;28;20105;-70
2022/05/31 05:21:07;;;;;;;3.15;1.98;;;;;;;11.05;63.16;100100.47;5050095;28;20120;-70
2022/05/31 05:23:32;;;;;;;2.97;1.98;;;;;;;11.14;62.55;100103.13;5050048;28;20126;-71
2022/05/31 05:25:59;;;;;;;3.38;1.98;;;;;;;11.21;62.93;100094.34;5049716;28;20032;-71
2022/05/31 05:31:26;;;;;;;3.53;2.22;;;;;;;11.60;62.56;100098.91;5045637;28;20052;-71
2022/05/31 05:33:55;;;;;;;2.58;2.22;;;;;;;11.77;62.05;100102.34;5049233;28;20482;-71
2022/05/31 05:36:21;;;;;;;3.75;2.03;;;;;;;12.01;61.89;100092.69;5052079;28;20681;-71
2022/05/31 05:38:47;;;;;;;4.07;2.10;;;;;;;12.31;60.89;100099.03;5050140;28;20033;-71
2022/05/31 05:41:14;;;;;;;3.42;2.22;;;;;;;12.51;60.58;100105.56;5050203;28;20048;-71
2022/05/31 05:43:42;;;;;;;2.38;2.08;;;;;;;12.76;60.29;100097.44;5049862;28;20041;-71
2022/05/31 05:46:17;;;;;;;3.22;1.90;;;;;;;13.18;59.79;100091.66;5050028;28;20036;-71
2022/05/31 05:48:43;;;;;;;3.45;2.20;;;;;;;13.34;59.17;100106.63;5049612;28;20072;-71
2022/05/31 05:51:22;;;;;;;3.47;2.10;;;;;;;13.33;59.25;100102.31;5048384;28;20036;-71
2022/05/31 05:53:49;;;;;;;4.15;1.90;;;;;;;13.29;58.88;100108.19;5050685;28;20033;-71
2022/05/31 05:56:15;;;;;;;2.20;1.55;;;;;;;13.23;59.02;100101.72;5049571;28;20036;-71
2022/05/31 05:58:42;;;;;;;3.78;2.00;;;;;;;13.22;59.27;100105.38;5048835;28;20037;-71
2022/05/31 06:01:13;;;;;;;3.97;2.40;;;;;;;13.28;59.67;100104.69;5050088;28;20663;-71
2022/05/31 06:03:46;;;;;;;5.13;2.72;;;;;;;13.74;59.38;100106.41;5048640;28;20052;-71
2022/05/31 06:06:13;;;;;;;;;;;;;;;14.14;58.87;100105.09;5049911;28;20055;-71
2022/05/31 06:09:03;;;;;;;3.90;2.40;;;;;;;14.78;58.47;100101.78;5048923;28;20332;-72
2022/05/31 06:11:35;;;;;;;3.78;2.10;;;;;;;15.47;57.32;100103.78;5049125;28;20246;-71
2022/05/31 06:14:02;;;;;;;;;;;;;;;16.03;56.73;100105.59;5050901;28;20041;-71
2022/05/31 06:16:31;;;;;;;;;;;;;;;16.43;54.55;100112.94;5049690;28;19955;-71
2022/05/31 06:19:09;;;;;;;3.40;2.05;;;;;;;16.79;54.16;100114.50;5048796;28;20374;-71
2022/05/31 06:21:35;;;;;;;2.92;1.95;;;;;;;17.08;53.02;100119.47;5047756;28;20041;-71
2022/05/31 06:24:01;;;;;;;2.67;1.85;;;;;;;17.29;52.37;100120.31;5049803;28;20033;-72
2022/05/31 06:26:28;;;;;;;2.33;1.58;;;;;;;17.42;51.56;100120.28;5048306;28;20048;-72
2022/05/31 06:28:54;;;;;;;3.33;1.80;;;;;;;17.40;51.50;100125.84;5047815;28;20120;-71
2022/05/31 06:31:19;;;;;;;4.03;2.05;;;;;;;17.53;50.85;100124.19;5049212;28;20140;-71
2022/05/31 06:33:44;;;;;;;2.65;1.50;;;;;;;17.64;50.79;100128.94;5047759;28;20029;-71
2022/05/31 06:36:10;;;;;;;4.88;1.48;;;;;;;17.86;50.47;100132.19;5048926;28;20675;-72
2022/05/31 06:38:36;;;;;;;1.70;1.20;;;;;;;17.95;50.80;100133.63;5048272;28;20044;-71
2022/05/31 06:41:02;;;;;;;1.85;1.20;;;;;;;18.09;50.24;100131.75;5048443;28;20033;-71
2022/05/31 06:43:27;;;;;;;4.25;1.70;;;;;;;18.52;48.84;100136.50;5048686;28;20068;-72
2022/05/31 06:45:52;;;;;;;2.65;1.35;;;;;;;19.07;49.54;100136.81;5048102;28;20037;-72
2022/05/31 06:48:18;;;;;;;2.08;1.38;;;;;;;19.56;49.09;100131.69;5048797;28;20037;-72
2022/05/31 06:50:43;;;;;;;2.83;1.10;;;;;;;19.65;48.86;100133.03;5051210;28;20036;-71
2022/05/31 06:56:48;;;;;;;3.05;1.73;;;;;;;19.23;47.33;100134.63;5049133;28;20324;-72
2022/05/31 06:59:00;;;;;;;2.70;1.60;;;;;;;18.93;47.00;100127.22;5048755;28;20127;-72
2022/05/31 07:01:31;;;;;;;3.25;1.65;;;;;;;18.59;47.26;100131.94;5050113;28;20116;-71
2022/05/31 07:03:58;;;;;;;2.20;1.48;;;;;;;18.49;47.53;100122.72;5064015;28;20047;-72
2022/05/31 07:06:23;;;;;;;2.97;1.55;;;;;;;18.83;47.59;100129.53;5047301;28;20044;-71
2022/05/31 07:08:48;;;;;;;1.98;1.38;;;;;;;18.81;46.92;100127.09;5048343;28;20408;-72
2022/05/31 07:11:14;;;;;;;2.53;1.67;;;;;;;18.75;47.57;100124.44;5044809;28;20114;-72
2022/05/31 07:13:39;;;;;;;3.42;1.70;;;;;;;18.80;47.43;100104.00;5049940;28;20536;-71
2022/05/31 07:16:04;;;;;;;2.95;1.45;;;;;;;19.09;47.97;100112.47;5046912;28;20133;-72
2022/05/31 07:18:30;;;;;;;2.35;1.40;;;;;;;19.60;47.39;100113.28;5046527;28;20379;-72
2022/05/31 07:20:55;;;;;;;1.60;1.00;;;;;;;19.98;46.61;100113.13;5048489;28;20084;-72
2022/05/31 07:23:21;;;;;;;2.33;1.40;;;;;;;19.99;45.51;100117.44;5049765;28;20037;-72
2022/05/31 07:25:46;;;;;;;3.03;1.50;;;;;;;20.03;45.40;100113.28;5046994;28;20430;-72
2022/05/31 07:28:12;;;;;;;2.40;1.40;;;;;;;20.26;44.90;100111.75;5046173;28;20043;-72
2022/05/31 07:30:37;;;;;;;2.20;1.30;;;;;;;20.58;44.66;100104.34;5045497;28;20119;-72
2022/05/31 07:33:03;;;;;;;2.88;1.15;;;;;;;21.27;44.35;100099.38;5046345;28;20402;-72
2022/05/31 07:35:29;;;;;;;2.40;1.35;;;;;;;21.44;43.25;100107.59;5049408;28;20110;-72
2022/05/31 07:37:55;;;;;;;3.20;1.70;;;;;;;21.65;42.35;100105.38;5047044;28;20886;-72
2022/05/31 07:40:20;;;;;;;;;;;;;;;21.75;41.99;100110.97;5045837;28;20036;-72
2022/05/31 07:42:45;;;;;;;;;;;;;;;22.40;40.66;100116.09;5047232;28;19917;-72
2022/05/31 07:45:11;;;;;;;2.30;1.23;;;;;;;22.45;40.91;100112.69;5046173;28;19923;-72
2022/05/31 07:47:36;;;;;;;;;;;;;;;22.53;40.51;100111.53;5045787;28;20461;-73
2022/05/31 07:50:02;;;;;;;2.20;1.00;;;;;;;22.76;40.14;100118.66;5046206;28;19974;-72
2022/05/31 07:52:27;;;;;;;2.72;1.33;;;;;;;22.44;39.67;100122.66;5047619;28;20068;-72
2022/05/31 07:54:53;;;;;;;2.50;1.50;;;;;;;22.05;39.05;100129.66;5045487;28;20033;-72
2022/05/31 08:00:03;;;;;;;2.15;1.40;;;;;;;21.56;39.85;100113.78;5047850;28;20039;-72
2022/05/31 08:02:29;;;;;;;1.88;1.20;;;;;;;21.71;40.01;100107.91;5046986;28;20053;-72
2022/05/31 08:04:54;;;;;;;2.33;1.52;;;;;;;21.90;39.69;100107.78;5045904;28;20555;-71
2022/05/31 08:07:19;;;;;;;2.28;1.40;;;;;;;21.60;40.04;100108.78;5046763;28;20047;-72
2022/05/31 08:09:45;;;;;;;1.58;1.15;;;;;;;21.62;40.37;100109.34;5045984;28;20410;-71
2022/05/31 08:12:11;;;;;;;4.13;1.38;;;;;;;21.92;40.16;100111.88;5046325;28;20033;-72
2022/05/31 08:14:36;;;;;;;1.38;0.98;;;;;;;22.59;39.55;100116.75;5046880;28;20036;-73
2022/05/31 08:17:03;;;;;;;3.60;1.30;;;;;;;22.93;38.98;100097.94;5048056;28;20037;-72
2022/05/31 08:19:29;;;;;;;2.38;1.40;;;;;;;22.68;38.77;100098.31;5046654;28;20040;-72
2022/05/31 08:21:55;;;;;;;2.65;1.55;;;;;;;22.45;38.22;100097.38;5046003;28;20387;-72
2022/05/31 08:24:21;;;;;;;2.40;1.10;;;;;;;22.89;38.64;100084.13;5046182;28;20526;-72
2022/05/31 08:26:46;;;;;;;2.30;1.02;;;;;;;23.78;38.08;100103.31;5045030;28;20033;-72
2022/05/31 08:29:11;;;;;;;1.55;1.00;;;;;;;24.69;37.18;100098.19;5047332;28;20040;-72
2022/05/31 08:31:37;;;;;;;1.60;0.82;;;;;;;25.59;36.02;100100.28;5045570;28;20071;-73
2022/05/31 08:34:04;;;;;;;2.27;1.13;;;;;;;25.91;33.89;100100.22;5047905;28;20471;-72
2022/05/31 08:36:30;;;;;;;1.35;0.88;;;;;;;26.02;33.70;100095.66;5046799;28;20052;-73
2022/05/31 08:38:55;;;;;;;3.40;1.20;;;;;;;26.23;33.43;100094.63;5045792;28;20025;-72
2022/05/31 08:41:36;;;;;;;1.83;1.10;;;;;;;27.01;32.32;100095.63;5047961;28;20033;-73
2022/05/31 08:44:20;;;;;;;3.47;1.40;;;;;;;26.96;30.77;100085.56;5046531;28;20033;-73
2022/05/31 08:47:11;;;;;;;2.33;1.20;;;;;;;26.70;31.51;100084.75;5046272;28;20569;-73
2022/05/31 08:52:35;;;;;;;1.23;0.80;;;;;;;26.68;31.42;100087.72;5037857;28;19975;-72
2022/05/31 08:58:01;;;;;;;3.10;1.20;;;;;;;27.46;29.95;100086.63;5045608;28;20048;-73
2022/05/31 09:00:31;;;;;;;1.73;1.10;;;;;;;27.43;29.81;100091.78;5046598;28;20508;-73
2022/05/31 09:03:10;;;;;;;1.95;0.90;;;;;;;27.59;29.53;100089.88;5044977;28;20068;-73
2022/05/31 09:05:42;;;;;;;2.15;0.90;;;;;;;28.05;29.44;100087.81;5045950;28;20029;-73
2022/05/31 09:08:36;;;;;;;4.57;1.10;;;;;;;28.49;27.71;100087.06;5045807;28;20025;-73
2022/05/31 09:11:20;;;;;;;2.05;0.93;;;;;;;29.17;27.14;100090.94;5046053;28;20524;-73
2022/05/31 09:14:10;;;;;;;1.65;0.90;;;;;;;30.04;26.07;100088.09;5042612;28;20056;-73
2022/05/31 09:16:51;;;;;;;1.40;0.90;;;;;;;29.89;25.91;100091.03;5039558;28;20034;-72
2022/05/31 09:19:38;;;;;;;1.67;0.80;;;;;;;29.79;26.47;100089.22;5054530;28;20033;-73
2022/05/31 09:22:07;;;;;;;1.42;0.80;;;;;;;30.72;25.62;100090.72;5049814;28;20037;-73
2022/05/31 09:24:37;;;;;;;2.10;0.82;;;;;;;31.32;24.98;100088.06;5052381;28;20037;-72
2022/05/31 09:27:07;;;;;;;1.52;0.85;;;;;;;31.45;24.23;100084.59;5047503;28;20037;-72
2022/05/31 09:29:58;;;;;;;2.33;1.20;;;;;;;30.97;24.05;100078.63;5044495;28;20098;-72
2022/05/31 09:32:42;;;;;;;4.28;1.23;;;;;;;31.89;23.88;100085.09;5045865;28;20044;-72
2022/05/31 09:35:14;;;;;;;2.80;1.20;;;;;;;32.22;21.49;100083.06;5047925;28;20086;-72
2022/05/31 09:37:57;;;;;;;1.70;0.95;;;;;;;32.41;21.98;100082.91;5045601;28;20060;-72
2022/05/31 09:40:38;;;;;;;1.88;0.95;;;;;;;33.25;21.56;100086.09;5039219;28;20083;-72
2022/05/31 09:43:20;;;;;;;3.17;1.07;;;;;;;32.98;21.18;100087.88;5044886;28;20068;-72
2022/05/31 09:45:54;;;;;;;2.42;1.13;;;;;;;33.11;20.22;100081.53;5045059;28;20279;-72
2022/05/31 09:48:20;;;;;;;4.82;1.20;;;;;;;32.14;21.79;100097.47;5041471;28;20025;-72
2022/05/31 09:50:45;;;;;;;2.05;1.10;;;;;;;32.50;21.83;100085.75;5044018;28;20508;-72
2022/05/31 09:59:04;;;;;;;3.10;1.60;;;;;;;32.28;21.89;100084.56;5052005;28;20040;-72
2022/05/31 10:01:30;;;;;;;1.73;1.10;;;;;;;31.91;22.57;100075.47;5052064;28;20643;-72
2022/05/31 10:04:07;;;;;;;2.72;1.35;;;;;;;33.17;21.70;100074.00;5051829;28;20025;-72
2022/05/31 10:06:33;;;;;;;2.35;1.60;;;;;;;31.66;22.32;100071.34;5049743;28;20032;-72
2022/05/31 10:09:15;;;;;;;3.58;1.20;;;;;;;32.02;22.59;100070.63;5046958;28;20053;-72
2022/05/31 10:11:48;;;;;;;2.70;1.60;;;;;;;30.74;23.59;100072.13;5050260;28;20080;-72
2022/05/31 10:14:35;;;;;;;2.50;1.20;;;;;;;31.76;22.82;100069.53;5051030;28;20056;-72
2022/05/31 10:17:27;;;;;;;3.22;1.40;;;;;;;33.15;20.36;100057.84;5049580;28;20047;-72
2022/05/31 10:20:05;;;;;;;3.60;1.90;;;;;;;33.38;20.58;100064.09;5045722;28;20044;-72
2022/05/31 10:22:30;;;;;;;4.18;1.50;;;;;;;33.20;21.30;100059.66;5047211;28;20457;-72
2022/05/31 10:24:56;;;;;;;2.60;1.50;;;;;;;34.65;20.29;100055.97;5047570;28;20125;-73
2022/05/31 10:27:26;;;;;;;2.77;1.27;;;;;;;36.11;19.33;100057.72;5048298;28;20077;-72
2022/05/31 10:29:59;;;;;;;3.72;1.70;;;;;;;36.92;18.06;100055.56;5043266;28;20383;-72
2022/05/31 10:32:35;;;;;;;3.28;1.38;;;;;;;36.99;17.75;100063.22;5043600;28;20047;-72
2022/05/31 10:35:21;;;;;;;2.25;1.10;;;;;;;37.03;17.44;100049.59;5052475;28;20037;-73
2022/05/31 10:38:23;;;;;;;2.45;1.25;;;;;;;37.60;16.71;100051.53;5046850;28;20509;-72
2022/05/31 10:41:00;;;;;;;3.13;1.55;;;;;;;36.74;17.06;100049.41;5046434;28;20037;-72
2022/05/31 10:43:39;;;;;;;2.63;1.10;;;;;;;36.78;18.13;100046.78;5047135;28;20412;-72
2022/05/31 10:46:10;;;;;;;2.45;1.10;;;;;;;37.88;16.70;100035.06;5049943;28;20099;-73
2022/05/31 10:48:46;;;;;;;3.95;1.20;;;;;;;37.95;17.12;100029.75;5049503;28;20029;-72
2022/05/31 10:51:35;;;;;;;2.55;1.45;;;;;;;37.83;16.69;100033.34;5049073;28;20089;-72
2022/05/31 10:54:25;;;;;;;3.05;1.40;;;;;;;38.67;15.93;100035.38;5049016;28;20529;-72
2022/05/31 10:57:27;;;;;;;6.15;0.88;;;;;;;39.00;15.56;100033.50;5046718;28;20041;-72
2022/05/31 11:00:00;;;;;;;1.67;1.00;;;;;;;38.71;14.09;100021.69;5048616;28;20041;-72
2022/05/31 11:02:43;;;;;;;2.45;0.80;;;;;;;38.69;14.85;100034.22;5048683;28;20045;-72
2022/05/31 11:05:15;;;;;;;2.17;1.00;;;;;;;38.55;14.67;100037.41;5046957;28;20156;-72
2022/05/31 11:11:28;;;;;;;1.48;0.88;;;;;;;38.80;14.10;100036.09;5049268;28;20486;-72
2022/05/31 11:13:38;;;;;;;2.97;0.90;;;;;;;39.44;12.98;100042.50;5048305;28;20043;-73
2022/05/31 11:16:14;;;;;;;2.78;1.02;;;;;;;39.06;12.83;100051.41;5046939;28;20048;-73
2022/05/31 11:18:54;;;;;;;1.48;0.80;;;;;;;39.59;12.96;100054.72;5049753;28;20037;-73
2022/05/31 11:21:47;;;;;;;1.92;0.90;;;;;;;39.44;12.30;100041.72;5047405;28;20033;-72
2022/05/31 11:24:31;;;;;;;1.65;0.80;;;;;;;39.19;11.92;100049.34;5046437;28;20094;-72
2022/05/31 11:27:34;;;;;;;1.35;0.80;;;;;;;39.50;12.64;100057.69;5046891;28;20033;-72
2022/05/31 11:30:05;;;;;;;1.27;0.80;;;;;;;40.07;12.46;100054.59;5045647;28;20033;-72
2022/05/31 11:33:10;;;;;;;2.05;0.77;;;;;;;40.43;11.85;100055.38;5049270;28;20116;-73
2022/05/31 11:35:51;;;;;;;1.35;0.80;;;;;;;41.13;11.91;100052.38;5044907;28;20531;-72
2022/05/31 11:38:32;;;;;;;2.33;1.00;;;;;;;40.69;11.85;100049.16;5046458;28;20102;-73
2022/05/31 11:41:10;;;;;;;1.08;0.70;;;;;;;40.67;11.53;100045.97;5047627;28;20063;-72
2022/05/31 11:43:43;;;;;;;1.92;0.88;;;;;;;40.76;11.86;100043.75;5056925;28;20029;-72
2022/05/31 11:46:34;;;;;;;2.03;0.90;;;;;;;41.10;11.86;100036.44;5048151;28;20125;-72
2022/05/31 11:49:06;;;;;;;1.52;0.70;;;;;;;41.53;11.63;100039.97;5047840;28;20037;-72
2022/05/31 11:52:08;;;;;;;1.58;0.68;;;;;;;41.92;11.30;100036.13;5048056;28;20509;-72
2022/05/31 11:55:25;;;;;;;2.65;0.77;;;;;;;42.20;9.69;100038.50;5047907;28;20454;-72
2022/05/31 11:57:49;;;;;;;1.30;0.75;;;;;;;41.94;10.36;100022.66;5047821;28;20037;-72
2022/05/31 12:00:16;;;;;;;2.03;0.90;;;;;;;42.29;10.03;100029.84;5046875;28;20044;-72
2022/05/31 12:03:01;;;;;;;1.80;0.85;;;;;;;41.04;10.14;100026.81;5047531;28;20033;-72
2022/05/31 12:05:49;;;;;;;1.85;0.80;;;;;;;41.10;10.43;100030.09;5048058;28;20032;-72
2022/05/31 12:08:42;;;;;;;3.10;0.95;;;;;;;41.77;9.50;100024.03;5047443;28;20087;-72